Аэропорт: Шереметьево. Москва

ICAO: UUEE

METAR:
2018/07/16 19:30
UUEE 161930Z 04005MPS CAVOK 24/18 Q1009 R06C/CLRD62 R06R/CLRD62 NOSIG
METAR:
2018/07/16 18:21
TAF UUEE 161700Z 1618/1718 05005MPS 9999 BKN025 TX29/1715Z TN19/1703Z